Terminal Aerodrome Forecast
Issued by NWS Quad Cities IA IL

Home | Current Version | Previous Version | Text Only | Print | Product List | Glossary On
Versions: 1 2 3 4 5 6 7 8 9 10 11 12 13 14 15 16 17 18 19 20 21 22 23
000
FTUS43 KDVN 132320
TAFDBQ
TAF
KDBQ 132320Z 1400/1424 14005KT P6SM SCT120
     FM141300 17008KT P6SM VCSH BKN040
     FM141600 20011KT P6SM BKN050
     FM142100 22010KT P6SM VCTS BKN040CB=

USA.gov is the U.S. government's official web portal to all federal, state and local government web resources and services.